PWSweather.com
Personal Weather Stations
Station Observations

YeovilGB

Lat: 50.949, Lon: -2.627

Elevation: 70

Station Type: Vantage Pro

http://www.yeovil-weather.me.uk/

High Low Average
Temperature 46.5°F8.1°C 36.8°F2.7°C 41.7°F5.4°C
Dew Point 44.3°F6.8°C 33.2°F0.7°C 38.8°F3.8°C
Winds 1.2 mph 1.9 kmh Calm Calm Calm WCalm W
Wind Gusts 5.8 mph9.3 kmh -- --
Humidity 95% 83% 90%
Pressure 30.39 in1029.1 mb 30.34 in1027.4 mb -
Precipitation 0.00 in0.0 mm - -
Hour Temp Dew Point Humidity Winds Wind Gusts Pressure Precip Precip Rate Daily Precip Total
12:00 AM 36.8°F2.7°C 33.3°F0.7°C 87% Calm Calm 1.2 mph1.9 kmh 30.37 in1028.4 mb - 0.00 in0.0 mm 0.00 in0.0 mm
12:10 AM 37.0°F2.8°C 33.5°F0.8°C 87% 1.2 mph NW1.9 kmh NW 1.2 mph1.9 kmh 30.37 in1028.4 mb - 0.00 in0.0 mm 0.00 in0.0 mm
12:20 AM 37.3°F2.9°C 33.8°F1.0°C 87% Calm Calm 4.6 mph7.4 kmh 30.36 in1028.1 mb - 0.00 in0.0 mm 0.00 in0.0 mm
12:30 AM 37.5°F3.1°C 33.7°F0.9°C 86% 1.2 mph NW1.9 kmh NW 3.5 mph5.6 kmh 30.37 in1028.4 mb - 0.00 in0.0 mm 0.00 in0.0 mm
12:40 AM 37.7°F3.2°C 33.9°F1.1°C 86% Calm Calm 2.3 mph3.7 kmh 30.36 in1028.1 mb - 0.00 in0.0 mm 0.00 in0.0 mm
12:50 AM 37.7°F3.2°C 33.6°F0.9°C 85% Calm Calm 3.5 mph5.6 kmh 30.36 in1028.1 mb - 0.00 in0.0 mm 0.00 in0.0 mm
01:00 AM 37.5°F3.1°C 33.4°F0.8°C 85% 1.2 mph NW1.9 kmh NW 2.3 mph3.7 kmh 30.36 in1028.1 mb - 0.00 in0.0 mm 0.00 in0.0 mm
01:10 AM 37.4°F3.0°C 33.3°F0.7°C 85% Calm Calm 4.6 mph7.4 kmh 30.36 in1028.1 mb - 0.00 in0.0 mm 0.00 in0.0 mm
01:20 AM 37.3°F2.9°C 33.2°F0.7°C 85% Calm Calm -- 30.37 in1028.4 mb - 0.00 in0.0 mm 0.00 in0.0 mm
01:30 AM 37.3°F2.9°C 33.2°F0.7°C 85% Calm Calm 1.2 mph1.9 kmh 30.37 in1028.4 mb - 0.00 in0.0 mm 0.00 in0.0 mm
01:40 AM 37.3°F2.9°C 33.5°F0.8°C 86% Calm Calm -- 30.37 in1028.4 mb - 0.00 in0.0 mm 0.00 in0.0 mm
01:50 AM 37.4°F3.0°C 33.6°F0.9°C 86% Calm Calm -- 30.37 in1028.4 mb - 0.00 in0.0 mm 0.00 in0.0 mm
02:00 AM 37.4°F3.0°C 33.6°F0.9°C 86% Calm Calm -- 30.37 in1028.4 mb - 0.00 in0.0 mm 0.00 in0.0 mm
02:10 AM 37.5°F3.1°C 33.4°F0.8°C 85% Calm Calm -- 30.37 in1028.4 mb - 0.00 in0.0 mm 0.00 in0.0 mm
02:20 AM 37.5°F3.1°C 33.4°F0.8°C 85% Calm Calm -- 30.37 in1028.4 mb - 0.00 in0.0 mm 0.00 in0.0 mm
02:30 AM 37.5°F3.1°C 33.4°F0.8°C 85% Calm Calm -- 30.37 in1028.4 mb - 0.00 in0.0 mm 0.00 in0.0 mm
02:40 AM 37.3°F2.9°C 33.5°F0.8°C 86% Calm Calm -- 30.38 in1028.8 mb - 0.00 in0.0 mm 0.00 in0.0 mm
02:50 AM 37.3°F2.9°C 33.5°F0.8°C 86% Calm Calm -- 30.38 in1028.8 mb - 0.00 in0.0 mm 0.00 in0.0 mm
03:00 AM 37.3°F2.9°C 33.5°F0.8°C 86% Calm Calm -- 30.38 in1028.8 mb - 0.00 in0.0 mm 0.00 in0.0 mm
03:10 AM 37.5°F3.1°C 33.7°F0.9°C 86% Calm Calm -- 30.38 in1028.8 mb - 0.00 in0.0 mm 0.00 in0.0 mm
03:20 AM 37.7°F3.2°C 33.6°F0.9°C 85% Calm Calm -- 30.37 in1028.4 mb - 0.00 in0.0 mm 0.00 in0.0 mm
03:30 AM 37.8°F3.2°C 33.7°F0.9°C 85% Calm Calm -- 30.37 in1028.4 mb - 0.00 in0.0 mm 0.00 in0.0 mm
03:40 AM 38.0°F3.3°C 33.9°F1.1°C 85% Calm Calm -- 30.38 in1028.8 mb - 0.00 in0.0 mm 0.00 in0.0 mm
03:50 AM 38.1°F3.4°C 33.7°F0.9°C 84% Calm Calm -- 30.38 in1028.8 mb - 0.00 in0.0 mm 0.00 in0.0 mm
04:00 AM 38.1°F3.4°C 33.7°F0.9°C 84% Calm Calm -- 30.38 in1028.8 mb - 0.00 in0.0 mm 0.00 in0.0 mm
04:10 AM 38.0°F3.3°C 33.6°F0.9°C 84% Calm Calm -- 30.37 in1028.4 mb - 0.00 in0.0 mm 0.00 in0.0 mm
04:20 AM 37.8°F3.2°C 33.4°F0.8°C 84% Calm Calm -- 30.37 in1028.4 mb - 0.00 in0.0 mm 0.00 in0.0 mm
04:30 AM 37.7°F3.2°C 33.3°F0.7°C 84% Calm Calm -- 30.37 in1028.4 mb - 0.00 in0.0 mm 0.00 in0.0 mm
04:40 AM 37.7°F3.2°C 33.3°F0.7°C 84% Calm Calm -- 30.37 in1028.4 mb - 0.00 in0.0 mm 0.00 in0.0 mm
04:50 AM 37.7°F3.2°C 33.3°F0.7°C 84% Calm Calm -- 30.37 in1028.4 mb - 0.00 in0.0 mm 0.00 in0.0 mm
05:00 AM 37.6°F3.1°C 33.2°F0.7°C 84% Calm Calm -- 30.37 in1028.4 mb - 0.00 in0.0 mm 0.00 in0.0 mm
05:10 AM 37.6°F3.1°C 33.2°F0.7°C 84% Calm Calm -- 30.37 in1028.4 mb - 0.00 in0.0 mm 0.00 in0.0 mm
05:20 AM 37.6°F3.1°C 33.2°F0.7°C 84% Calm Calm -- 30.37 in1028.4 mb - 0.00 in0.0 mm 0.00 in0.0 mm
05:30 AM 37.8°F3.2°C 33.4°F0.8°C 84% Calm Calm -- 30.37 in1028.4 mb - 0.00 in0.0 mm 0.00 in0.0 mm
05:40 AM 38.0°F3.3°C 33.6°F0.9°C 84% Calm Calm -- 30.37 in1028.4 mb - 0.00 in0.0 mm 0.00 in0.0 mm
05:50 AM 38.0°F3.3°C 33.6°F0.9°C 84% Calm Calm -- 30.37 in1028.4 mb - 0.00 in0.0 mm 0.00 in0.0 mm
06:00 AM 37.9°F3.3°C 33.2°F0.7°C 83% Calm Calm -- 30.37 in1028.4 mb - 0.00 in0.0 mm 0.00 in0.0 mm
06:10 AM 37.8°F3.2°C 33.4°F0.8°C 84% Calm Calm -- 30.37 in1028.4 mb - 0.00 in0.0 mm 0.00 in0.0 mm
06:20 AM 37.8°F3.2°C 33.4°F0.8°C 84% Calm Calm -- 30.37 in1028.4 mb - 0.00 in0.0 mm 0.00 in0.0 mm
06:30 AM 37.8°F3.2°C 33.4°F0.8°C 84% Calm Calm -- 30.37 in1028.4 mb - 0.00 in0.0 mm 0.00 in0.0 mm
06:40 AM 37.8°F3.2°C 33.4°F0.8°C 84% Calm Calm -- 30.37 in1028.4 mb - 0.00 in0.0 mm 0.00 in0.0 mm
06:50 AM 37.9°F3.3°C 33.5°F0.8°C 84% Calm Calm -- 30.36 in1028.1 mb - 0.00 in0.0 mm 0.00 in0.0 mm
07:00 AM 37.9°F3.3°C 33.5°F0.8°C 84% Calm Calm -- 30.37 in1028.4 mb - 0.00 in0.0 mm 0.00 in0.0 mm
07:10 AM 38.0°F3.3°C 33.9°F1.1°C 85% Calm Calm -- 30.37 in1028.4 mb - 0.00 in0.0 mm 0.00 in0.0 mm
07:20 AM 38.0°F3.3°C 33.9°F1.1°C 85% Calm Calm -- 30.37 in1028.4 mb - 0.00 in0.0 mm 0.00 in0.0 mm
07:30 AM 37.9°F3.3°C 34.1°F1.2°C 86% Calm Calm -- 30.37 in1028.4 mb - 0.00 in0.0 mm 0.00 in0.0 mm
07:40 AM 37.6°F3.1°C 33.8°F1.0°C 86% Calm Calm -- 30.37 in1028.4 mb - 0.00 in0.0 mm 0.00 in0.0 mm
07:50 AM 37.3°F2.9°C 33.5°F0.8°C 86% Calm Calm -- 30.37 in1028.4 mb - 0.00 in0.0 mm 0.00 in0.0 mm
08:00 AM 37.1°F2.8°C 33.3°F0.7°C 86% Calm Calm -- 30.37 in1028.4 mb - 0.00 in0.0 mm 0.00 in0.0 mm
08:10 AM 37.0°F2.8°C 33.5°F0.8°C 87% Calm Calm -- 30.37 in1028.4 mb - 0.00 in0.0 mm 0.00 in0.0 mm
08:20 AM 37.0°F2.8°C 33.5°F0.8°C 87% Calm Calm -- 30.38 in1028.8 mb - 0.00 in0.0 mm 0.00 in0.0 mm
08:30 AM 37.1°F2.8°C 33.9°F1.1°C 88% Calm Calm -- 30.38 in1028.8 mb - 0.00 in0.0 mm 0.00 in0.0 mm
08:40 AM 37.2°F2.9°C 34.0°F1.1°C 88% Calm Calm -- 30.38 in1028.8 mb - 0.00 in0.0 mm 0.00 in0.0 mm
08:50 AM 37.4°F3.0°C 34.2°F1.2°C 88% Calm Calm -- 30.38 in1028.8 mb - 0.00 in0.0 mm 0.00 in0.0 mm
09:00 AM 37.6°F3.1°C 34.4°F1.3°C 88% Calm Calm -- 30.39 in1029.1 mb - 0.00 in0.0 mm 0.00 in0.0 mm
09:10 AM 37.8°F3.2°C 34.8°F1.6°C 89% Calm Calm -- 30.39 in1029.1 mb - 0.00 in0.0 mm 0.00 in0.0 mm
09:20 AM 38.1°F3.4°C 35.4°F1.9°C 90% Calm Calm -- 30.39 in1029.1 mb - 0.00 in0.0 mm 0.00 in0.0 mm
09:30 AM 38.2°F3.4°C 35.5°F1.9°C 90% Calm Calm -- 30.39 in1029.1 mb - 0.00 in0.0 mm 0.00 in0.0 mm
09:40 AM 38.3°F3.5°C 35.6°F2.0°C 90% Calm Calm -- 30.39 in1029.1 mb - 0.00 in0.0 mm 0.00 in0.0 mm
09:50 AM 38.5°F3.6°C 35.8°F2.1°C 90% Calm Calm -- 30.39 in1029.1 mb - 0.00 in0.0 mm 0.00 in0.0 mm
10:00 AM 38.6°F3.7°C 35.9°F2.2°C 90% Calm Calm -- 30.39 in1029.1 mb - 0.00 in0.0 mm 0.00 in0.0 mm
10:10 AM 38.8°F3.8°C 36.4°F2.4°C 91% Calm Calm -- 30.39 in1029.1 mb - 0.00 in0.0 mm 0.00 in0.0 mm
10:20 AM 38.9°F3.8°C 36.5°F2.5°C 91% Calm Calm -- 30.39 in1029.1 mb - 0.00 in0.0 mm 0.00 in0.0 mm
10:30 AM 39.2°F4.0°C 37.1°F2.8°C 92% Calm Calm -- 30.39 in1029.1 mb - 0.00 in0.0 mm 0.00 in0.0 mm
10:40 AM 39.4°F4.1°C 37.3°F2.9°C 92% Calm Calm -- 30.39 in1029.1 mb - 0.00 in0.0 mm 0.00 in0.0 mm
10:50 AM 39.7°F4.3°C 37.6°F3.1°C 92% Calm Calm -- 30.39 in1029.1 mb - 0.00 in0.0 mm 0.00 in0.0 mm
11:00 AM 40.0°F4.4°C 37.9°F3.3°C 92% Calm Calm -- 30.38 in1028.8 mb - 0.00 in0.0 mm 0.00 in0.0 mm
11:10 AM 40.4°F4.7°C 38.5°F3.6°C 93% Calm Calm -- 30.38 in1028.8 mb - 0.00 in0.0 mm 0.00 in0.0 mm
11:20 AM 40.8°F4.9°C 38.6°F3.7°C 92% Calm Calm -- 30.38 in1028.8 mb - 0.00 in0.0 mm 0.00 in0.0 mm
11:30 AM 41.2°F5.1°C 39.1°F3.9°C 92% Calm Calm -- 30.38 in1028.8 mb - 0.00 in0.0 mm 0.00 in0.0 mm
11:40 AM 41.6°F5.3°C 39.1°F3.9°C 91% Calm Calm -- 30.37 in1028.4 mb - 0.00 in0.0 mm 0.00 in0.0 mm
11:50 AM 42.0°F5.6°C 39.6°F4.2°C 91% Calm Calm -- 30.37 in1028.4 mb - 0.00 in0.0 mm 0.00 in0.0 mm
12:00 PM 42.4°F5.8°C 40.0°F4.4°C 91% Calm Calm -- 30.37 in1028.4 mb - 0.00 in0.0 mm 0.00 in0.0 mm
12:10 PM 42.9°F6.1°C 40.5°F4.7°C 91% Calm Calm -- 30.37 in1028.4 mb - 0.00 in0.0 mm 0.00 in0.0 mm
12:20 PM 43.3°F6.3°C 40.9°F4.9°C 91% Calm Calm -- 30.36 in1028.1 mb - 0.00 in0.0 mm 0.00 in0.0 mm
12:30 PM 43.7°F6.5°C 40.9°F4.9°C 90% Calm Calm -- 30.36 in1028.1 mb - 0.00 in0.0 mm 0.00 in0.0 mm
12:40 PM 44.0°F6.7°C 41.6°F5.3°C 91% Calm Calm -- 30.36 in1028.1 mb - 0.00 in0.0 mm 0.00 in0.0 mm
12:50 PM 44.4°F6.9°C 41.6°F5.3°C 90% Calm Calm -- 30.36 in1028.1 mb - 0.00 in0.0 mm 0.00 in0.0 mm
01:00 PM 44.7°F7.1°C 41.9°F5.5°C 90% Calm Calm -- 30.36 in1028.1 mb - 0.00 in0.0 mm 0.00 in0.0 mm
01:10 PM 44.9°F7.2°C 42.2°F5.7°C 90% Calm Calm -- 30.35 in1027.8 mb - 0.00 in0.0 mm 0.00 in0.0 mm
01:20 PM 45.2°F7.3°C 42.4°F5.8°C 90% Calm Calm -- 30.35 in1027.8 mb - 0.00 in0.0 mm 0.00 in0.0 mm
01:30 PM 45.4°F7.4°C 42.6°F5.9°C 90% Calm Calm -- 30.35 in1027.8 mb - 0.00 in0.0 mm 0.00 in0.0 mm
01:40 PM 45.5°F7.5°C 42.8°F6.0°C 90% Calm Calm -- 30.35 in1027.8 mb - 0.00 in0.0 mm 0.00 in0.0 mm
01:50 PM 45.6°F7.6°C 42.9°F6.1°C 90% Calm Calm -- 30.35 in1027.8 mb - 0.00 in0.0 mm 0.00 in0.0 mm
02:00 PM 45.9°F7.7°C 43.1°F6.2°C 90% Calm Calm -- 30.34 in1027.4 mb - 0.00 in0.0 mm 0.00 in0.0 mm
02:10 PM 46.0°F7.8°C 43.2°F6.2°C 90% Calm Calm -- 30.34 in1027.4 mb - 0.00 in0.0 mm 0.00 in0.0 mm
02:20 PM 46.2°F7.9°C 43.4°F6.3°C 90% Calm Calm -- 30.34 in1027.4 mb - 0.00 in0.0 mm 0.00 in0.0 mm
02:30 PM 46.4°F8.0°C 43.6°F6.4°C 90% Calm Calm -- 30.34 in1027.4 mb - 0.00 in0.0 mm 0.00 in0.0 mm
02:40 PM 46.4°F8.0°C 43.6°F6.4°C 90% Calm Calm -- 30.34 in1027.4 mb - 0.00 in0.0 mm 0.00 in0.0 mm
02:50 PM 46.4°F8.0°C 43.6°F6.4°C 90% Calm Calm -- 30.34 in1027.4 mb - 0.00 in0.0 mm 0.00 in0.0 mm
03:00 PM 46.4°F8.0°C 43.6°F6.4°C 90% Calm Calm -- 30.34 in1027.4 mb - 0.00 in0.0 mm 0.00 in0.0 mm
03:10 PM 46.5°F8.1°C 44.0°F6.7°C 91% Calm Calm -- 30.34 in1027.4 mb - 0.00 in0.0 mm 0.00 in0.0 mm
03:20 PM 46.5°F8.1°C 44.0°F6.7°C 91% Calm Calm -- 30.34 in1027.4 mb - 0.00 in0.0 mm 0.00 in0.0 mm
03:30 PM 46.4°F8.0°C 44.0°F6.7°C 91% Calm Calm -- 30.34 in1027.4 mb - 0.00 in0.0 mm 0.00 in0.0 mm
03:40 PM 46.4°F8.0°C 43.9°F6.6°C 91% Calm Calm -- 30.34 in1027.4 mb - 0.00 in0.0 mm 0.00 in0.0 mm
03:50 PM 46.3°F7.9°C 43.8°F6.6°C 91% Calm Calm -- 30.34 in1027.4 mb - 0.00 in0.0 mm 0.00 in0.0 mm
04:00 PM 46.0°F7.8°C 43.5°F6.4°C 91% Calm Calm -- 30.34 in1027.4 mb - 0.00 in0.0 mm 0.00 in0.0 mm
04:10 PM 45.8°F7.7°C 43.3°F6.3°C 91% Calm Calm -- 30.34 in1027.4 mb - 0.00 in0.0 mm 0.00 in0.0 mm
04:20 PM 45.6°F7.6°C 43.1°F6.2°C 91% Calm Calm -- 30.34 in1027.4 mb - 0.00 in0.0 mm 0.00 in0.0 mm
04:30 PM 45.5°F7.5°C 43.0°F6.1°C 91% Calm Calm -- 30.34 in1027.4 mb - 0.00 in0.0 mm 0.00 in0.0 mm
04:40 PM 45.5°F7.5°C 43.3°F6.3°C 92% Calm Calm -- 30.34 in1027.4 mb - 0.00 in0.0 mm 0.00 in0.0 mm
04:50 PM 45.6°F7.6°C 43.4°F6.3°C 92% 1.2 mph NW1.9 kmh NW -- 30.34 in1027.4 mb - 0.00 in0.0 mm 0.00 in0.0 mm
05:00 PM 45.7°F7.6°C 43.5°F6.4°C 92% Calm Calm -- 30.34 in1027.4 mb - 0.00 in0.0 mm 0.00 in0.0 mm
05:10 PM 45.8°F7.7°C 43.6°F6.4°C 92% Calm Calm -- 30.34 in1027.4 mb - 0.00 in0.0 mm 0.00 in0.0 mm
05:20 PM 45.8°F7.7°C 43.9°F6.6°C 93% Calm Calm 4.6 mph7.4 kmh 30.34 in1027.4 mb - 0.00 in0.0 mm 0.00 in0.0 mm
05:30 PM 45.8°F7.7°C 43.9°F6.6°C 93% Calm Calm -- 30.34 in1027.4 mb - 0.00 in0.0 mm 0.00 in0.0 mm
05:40 PM 45.8°F7.7°C 43.9°F6.6°C 93% Calm Calm -- 30.34 in1027.4 mb - 0.00 in0.0 mm 0.00 in0.0 mm
05:50 PM 45.8°F7.7°C 43.9°F6.6°C 93% Calm Calm 5.8 mph9.3 kmh 30.34 in1027.4 mb - 0.00 in0.0 mm 0.00 in0.0 mm
06:00 PM 45.9°F7.7°C 44.0°F6.7°C 93% Calm Calm 2.3 mph3.7 kmh 30.34 in1027.4 mb - 0.00 in0.0 mm 0.00 in0.0 mm
06:10 PM 45.9°F7.7°C 44.0°F6.7°C 93% Calm Calm -- 30.34 in1027.4 mb - 0.00 in0.0 mm 0.00 in0.0 mm
06:20 PM 45.7°F7.6°C 43.8°F6.6°C 93% Calm Calm -- 30.35 in1027.8 mb - 0.00 in0.0 mm 0.00 in0.0 mm
06:30 PM 45.6°F7.6°C 43.7°F6.5°C 93% Calm Calm -- 30.35 in1027.8 mb - 0.00 in0.0 mm 0.00 in0.0 mm
06:40 PM 45.6°F7.6°C 43.7°F6.5°C 93% Calm Calm -- 30.35 in1027.8 mb - 0.00 in0.0 mm 0.00 in0.0 mm
06:50 PM 45.5°F7.5°C 43.9°F6.6°C 94% Calm Calm -- 30.35 in1027.8 mb - 0.00 in0.0 mm 0.00 in0.0 mm
07:00 PM 45.5°F7.5°C 43.9°F6.6°C 94% Calm Calm -- 30.35 in1027.8 mb - 0.00 in0.0 mm 0.00 in0.0 mm
07:10 PM 45.4°F7.4°C 43.8°F6.6°C 94% Calm Calm -- 30.35 in1027.8 mb - 0.00 in0.0 mm 0.00 in0.0 mm
07:30 PM 45.4°F7.4°C 43.8°F6.6°C 94% Calm Calm -- 30.35 in1027.8 mb - 0.00 in0.0 mm 0.00 in0.0 mm
07:40 PM 45.5°F7.5°C 44.2°F6.8°C 95% Calm Calm 2.3 mph3.7 kmh 30.35 in1027.8 mb - 0.00 in0.0 mm 0.00 in0.0 mm
07:50 PM 45.5°F7.5°C 43.9°F6.6°C 94% Calm Calm -- 30.35 in1027.8 mb - 0.00 in0.0 mm 0.00 in0.0 mm
08:00 PM 45.6°F7.6°C 44.3°F6.8°C 95% Calm Calm -- 30.35 in1027.8 mb - 0.00 in0.0 mm 0.00 in0.0 mm
08:10 PM 45.6°F7.6°C 44.3°F6.8°C 95% Calm Calm 1.2 mph1.9 kmh 30.35 in1027.8 mb - 0.00 in0.0 mm 0.00 in0.0 mm
08:20 PM 45.6°F7.6°C 44.3°F6.8°C 95% Calm Calm -- 30.35 in1027.8 mb - 0.00 in0.0 mm 0.00 in0.0 mm
08:30 PM 45.6°F7.6°C 44.3°F6.8°C 95% Calm Calm -- 30.35 in1027.8 mb - 0.00 in0.0 mm 0.00 in0.0 mm
08:40 PM 45.6°F7.6°C 44.3°F6.8°C 95% Calm Calm -- 30.35 in1027.8 mb - 0.00 in0.0 mm 0.00 in0.0 mm
08:50 PM 45.6°F7.6°C 44.3°F6.8°C 95% 1.2 mph WSW1.9 kmh WSW 4.6 mph7.4 kmh 30.35 in1027.8 mb - 0.00 in0.0 mm 0.00 in0.0 mm
09:00 PM 45.6°F7.6°C 44.3°F6.8°C 95% Calm Calm -- 30.35 in1027.8 mb - 0.00 in0.0 mm 0.00 in0.0 mm
09:10 PM 45.5°F7.5°C 43.9°F6.6°C 94% Calm Calm -- 30.35 in1027.8 mb - 0.00 in0.0 mm 0.00 in0.0 mm
09:20 PM 45.4°F7.4°C 43.8°F6.6°C 94% Calm Calm -- 30.35 in1027.8 mb - 0.00 in0.0 mm 0.00 in0.0 mm
09:30 PM 45.3°F7.4°C 43.7°F6.5°C 94% Calm Calm -- 30.35 in1027.8 mb - 0.00 in0.0 mm 0.00 in0.0 mm
09:40 PM 45.2°F7.3°C 43.6°F6.4°C 94% Calm Calm -- 30.35 in1027.8 mb - 0.00 in0.0 mm 0.00 in0.0 mm
09:50 PM 45.2°F7.3°C 43.5°F6.4°C 94% Calm Calm -- 30.35 in1027.8 mb - 0.00 in0.0 mm 0.00 in0.0 mm
10:00 PM 45.1°F7.3°C 43.5°F6.4°C 94% Calm Calm -- 30.35 in1027.8 mb - 0.00 in0.0 mm 0.00 in0.0 mm
10:10 PM 45.0°F7.2°C 43.4°F6.3°C 94% Calm Calm -- 30.35 in1027.8 mb - 0.00 in0.0 mm 0.00 in0.0 mm
10:20 PM 44.9°F7.2°C 43.3°F6.3°C 94% Calm Calm -- 30.35 in1027.8 mb - 0.00 in0.0 mm 0.00 in0.0 mm
10:30 PM 44.9°F7.2°C 43.3°F6.3°C 94% Calm Calm -- 30.35 in1027.8 mb - 0.00 in0.0 mm 0.00 in0.0 mm
10:40 PM 44.8°F7.1°C 43.2°F6.2°C 94% Calm Calm 1.2 mph1.9 kmh 30.35 in1027.8 mb - 0.00 in0.0 mm 0.00 in0.0 mm
10:50 PM 44.8°F7.1°C 43.2°F6.2°C 94% 1.2 mph NW1.9 kmh NW 4.6 mph7.4 kmh 30.36 in1028.1 mb - 0.00 in0.0 mm 0.00 in0.0 mm
11:00 PM 44.9°F7.2°C 43.2°F6.2°C 94% Calm Calm -- 30.35 in1027.8 mb - 0.00 in0.0 mm 0.00 in0.0 mm
11:10 PM 44.8°F7.1°C 43.2°F6.2°C 94% Calm Calm -- 30.35 in1027.8 mb - 0.00 in0.0 mm 0.00 in0.0 mm
11:20 PM 44.7°F7.1°C 43.1°F6.2°C 94% Calm Calm 1.2 mph1.9 kmh 30.35 in1027.8 mb - 0.00 in0.0 mm 0.00 in0.0 mm
11:30 PM 44.8°F7.1°C 43.2°F6.2°C 94% Calm Calm -- 30.35 in1027.8 mb - 0.00 in0.0 mm 0.00 in0.0 mm
11:40 PM 44.8°F7.1°C 43.2°F6.2°C 94% Calm Calm -- 30.35 in1027.8 mb - 0.00 in0.0 mm 0.00 in0.0 mm
11:50 PM 44.7°F7.1°C 43.1°F6.2°C 94% Calm Calm -- 30.35 in1027.8 mb - 0.00 in0.0 mm 0.00 in0.0 mm